createdAt,value
2023-02-24T00:02:07.515Z,11.40
2023-02-24T00:04:39.427Z,10.50
2023-02-24T00:07:08.264Z,8.40
2023-02-24T00:09:34.709Z,12.50
2023-02-24T00:12:11.326Z,12.13
2023-02-24T00:14:40.840Z,16.55
2023-02-24T00:17:08.193Z,11.27
2023-02-24T00:19:35.782Z,27.10
2023-02-24T00:22:04.649Z,14.85
2023-02-24T00:24:31.635Z,13.23
2023-02-24T00:27:00.897Z,11.15
2023-02-24T00:29:29.027Z,10.07
2023-02-24T00:32:01.033Z,10.95
2023-02-24T00:34:33.930Z,10.73
2023-02-24T00:37:01.422Z,10.93
2023-02-24T00:39:30.121Z,11.25
2023-02-24T00:42:04.464Z,11.00
2023-02-24T00:44:40.535Z,10.35
2023-02-24T00:47:10.236Z,13.43
2023-02-24T00:49:43.353Z,8.88
2023-02-24T00:52:16.303Z,10.98
2023-02-24T00:54:44.351Z,11.95
2023-02-24T00:57:12.091Z,10.60
2023-02-24T00:59:39.561Z,11.80
2023-02-24T01:02:11.353Z,20.38
2023-02-24T01:04:37.938Z,13.93
2023-02-24T01:07:10.559Z,13.00
2023-02-24T01:09:39.605Z,10.68
2023-02-24T01:12:34.329Z,10.70
2023-02-24T01:15:02.993Z,7.95
2023-02-24T01:17:29.422Z,8.35
2023-02-24T01:20:00.196Z,9.38
2023-02-24T01:22:26.640Z,8.60
2023-02-24T01:24:53.284Z,9.50
2023-02-24T01:27:19.814Z,8.73
2023-02-24T01:29:49.559Z,7.40
2023-02-24T01:32:19.536Z,8.93
2023-02-24T01:34:47.122Z,9.68
2023-02-24T01:37:16.659Z,9.50
2023-02-24T01:39:44.540Z,8.65
2023-02-24T01:42:16.600Z,10.95
2023-02-24T01:44:43.583Z,11.77
2023-02-24T01:47:11.545Z,11.45
2023-02-24T01:49:42.555Z,10.45
2023-02-24T01:52:23.877Z,12.10
2023-02-24T01:54:56.278Z,13.88
2023-02-24T01:57:25.854Z,14.88
2023-02-24T01:59:54.613Z,33.83
2023-02-24T02:02:23.249Z,15.45
2023-02-24T02:04:57.026Z,31.42
2023-02-24T02:07:27.595Z,14.00
2023-02-24T02:09:55.083Z,17.45
2023-02-24T02:12:24.254Z,19.75
2023-02-24T02:14:54.830Z,16.20
2023-02-24T02:17:46.882Z,10.30
2023-02-24T02:20:28.860Z,10.93
2023-02-24T02:23:11.232Z,11.32
2023-02-24T02:25:56.367Z,26.25
2023-02-24T02:29:06.485Z,12.55
2023-02-24T02:31:55.296Z,7.93
2023-02-24T02:34:45.228Z,9.68
2023-02-24T02:37:33.065Z,13.25
2023-02-24T02:40:15.630Z,18.67
2023-02-24T02:42:51.034Z,11.05
2023-02-24T02:45:36.201Z,17.88
2023-02-24T02:48:13.543Z,15.93
2023-02-24T02:50:55.748Z,12.38
2023-02-24T02:53:28.709Z,37.40
2023-02-24T02:56:03.456Z,11.90
2023-02-24T02:58:36.150Z,17.00
2023-02-24T03:01:07.093Z,10.05
2023-02-24T03:03:42.674Z,11.70
2023-02-24T03:06:32.167Z,10.20
2023-02-24T03:09:12.216Z,12.05
2023-02-24T03:11:41.583Z,11.90
2023-02-24T03:14:12.102Z,14.93
2023-02-24T03:16:46.036Z,17.55
2023-02-24T03:19:15.268Z,10.52
2023-02-24T03:21:51.825Z,11.70
2023-02-24T03:24:18.351Z,12.40
2023-02-24T03:26:56.076Z,10.20
2023-02-24T03:29:54.977Z,10.20
2023-02-24T03:32:33.538Z,11.38
2023-02-24T03:35:07.228Z,15.38
2023-02-24T03:37:33.863Z,9.05
2023-02-24T03:40:14.673Z,6.75
2023-02-24T03:42:45.976Z,14.05
2023-02-24T03:45:13.111Z,8.63
2023-02-24T03:47:41.165Z,8.93
2023-02-24T03:50:13.965Z,8.52
2023-02-24T03:52:59.466Z,9.57
2023-02-24T03:55:58.603Z,7.95
2023-02-24T03:58:48.524Z,7.07
2023-02-24T04:01:41.895Z,6.82
2023-02-24T04:04:38.112Z,9.75
2023-02-24T04:07:26.353Z,8.15
2023-02-24T04:10:09.271Z,10.07
2023-02-24T04:12:47.034Z,8.10
2023-02-24T04:15:29.730Z,7.70
2023-02-24T04:18:01.106Z,13.48
2023-02-24T04:20:35.132Z,7.60
2023-02-24T04:23:14.804Z,9.40
2023-02-24T04:25:45.242Z,9.35
2023-02-24T04:28:13.365Z,9.60
2023-02-24T04:30:48.386Z,9.43
2023-02-24T04:33:15.542Z,6.60
2023-02-24T04:35:45.725Z,10.15
2023-02-24T04:38:12.700Z,7.03
2023-02-24T04:40:40.815Z,8.23
2023-02-24T04:43:07.807Z,7.72
2023-02-24T04:45:34.702Z,9.00
2023-02-24T04:48:03.063Z,8.95
2023-02-24T04:50:35.164Z,8.60
2023-02-24T04:53:09.357Z,11.40
2023-02-24T04:55:50.042Z,8.10
2023-02-24T04:58:20.849Z,10.02
2023-02-24T05:00:52.499Z,7.20
2023-02-24T05:03:20.472Z,8.23
2023-02-24T05:05:52.236Z,7.90
2023-02-24T05:08:19.789Z,5.88
2023-02-24T05:10:46.896Z,5.50
2023-02-24T05:13:22.201Z,5.30
2023-02-24T05:15:49.604Z,6.13
2023-02-24T05:18:17.476Z,6.70
2023-02-24T05:21:07.721Z,5.93
2023-02-24T05:23:39.973Z,5.03
2023-02-24T05:26:09.121Z,5.07
2023-02-24T05:28:37.518Z,5.70
2023-02-24T05:31:09.175Z,5.72
2023-02-24T05:33:37.746Z,4.88
2023-02-24T05:36:06.754Z,5.47
2023-02-24T05:38:37.846Z,5.38
2023-02-24T05:41:16.709Z,5.28
2023-02-24T05:43:55.004Z,4.60
2023-02-24T05:46:33.691Z,6.00
2023-02-24T05:49:04.227Z,4.25
2023-02-24T05:51:35.333Z,4.35
2023-02-24T05:54:07.221Z,6.18
2023-02-24T05:56:35.492Z,8.82
2023-02-24T05:59:03.814Z,10.98
2023-02-24T06:01:33.031Z,9.85
2023-02-24T06:04:05.887Z,15.20
2023-02-24T06:06:35.102Z,15.05
2023-02-24T06:09:10.545Z,10.65
2023-02-24T06:11:38.475Z,10.25
2023-02-24T06:14:07.111Z,12.82
2023-02-24T06:16:34.895Z,12.73
2023-02-24T06:19:01.685Z,15.57
2023-02-24T06:21:29.881Z,10.23
2023-02-24T06:24:00.776Z,8.00
2023-02-24T06:26:33.518Z,15.63
2023-02-24T06:29:00.064Z,22.20
2023-02-24T06:31:27.433Z,12.15
2023-02-24T06:33:53.961Z,10.15
2023-02-24T06:36:21.064Z,13.32
2023-02-24T06:38:49.365Z,11.55
2023-02-24T06:41:16.212Z,12.95
2023-02-24T06:43:44.894Z,10.77
2023-02-24T06:46:13.738Z,13.48
2023-02-24T06:48:40.193Z,13.70
2023-02-24T06:51:08.480Z,16.70
2023-02-24T06:53:35.807Z,16.90
2023-02-24T06:56:14.686Z,19.65
2023-02-24T06:58:45.525Z,11.57
2023-02-24T07:01:13.757Z,14.52
2023-02-24T07:03:41.050Z,13.85
2023-02-24T07:06:20.387Z,17.67
2023-02-24T07:08:47.956Z,20.40
2023-02-24T07:11:17.506Z,26.50
2023-02-24T07:13:44.569Z,21.20
2023-02-24T07:16:12.038Z,24.02
2023-02-24T07:18:41.657Z,26.42
2023-02-24T07:21:16.162Z,22.77
2023-02-24T07:23:45.213Z,29.10
2023-02-24T07:26:16.998Z,17.83
2023-02-24T07:28:45.116Z,24.83
2023-02-24T07:31:13.895Z,21.38
2023-02-24T07:33:41.069Z,24.48
2023-02-24T07:36:08.626Z,20.27
2023-02-24T07:38:39.131Z,10.45
2023-02-24T07:41:06.872Z,8.13
2023-02-24T07:43:43.982Z,12.82
2023-02-24T07:46:13.841Z,11.00
2023-02-24T07:48:41.994Z,11.38
2023-02-24T07:51:17.405Z,14.20
2023-02-24T07:53:44.088Z,6.00
2023-02-24T07:56:13.667Z,12.05
2023-02-24T07:58:59.058Z,8.23
2023-02-24T08:01:30.098Z,6.40
2023-02-24T08:04:01.429Z,7.50
2023-02-24T08:06:39.518Z,8.98
2023-02-24T08:09:17.508Z,7.53
2023-02-24T08:11:52.082Z,11.02
2023-02-24T08:14:24.768Z,7.93
2023-02-24T08:16:59.175Z,6.05
2023-02-24T08:19:39.611Z,13.68
2023-02-24T08:22:20.767Z,15.75
2023-02-24T08:24:54.933Z,11.40
2023-02-24T08:27:24.060Z,12.38
2023-02-24T08:29:58.133Z,14.88
2023-02-24T08:32:25.877Z,26.45
2023-02-24T08:34:56.705Z,18.95
2023-02-24T08:37:25.266Z,5.63
2023-02-24T08:39:54.000Z,11.63
2023-02-24T08:42:27.327Z,11.30
2023-02-24T08:44:53.757Z,9.70
2023-02-24T08:47:24.257Z,7.05
2023-02-24T08:49:53.673Z,5.97
2023-02-24T08:52:20.297Z,6.22
2023-02-24T08:54:49.098Z,6.13
2023-02-24T08:57:18.080Z,6.28
2023-02-24T08:59:49.948Z,6.60
2023-02-24T09:02:29.102Z,5.32
2023-02-24T09:04:57.330Z,8.43
2023-02-24T09:07:36.242Z,8.48
2023-02-24T09:10:05.522Z,5.13
2023-02-24T09:12:31.940Z,6.07
2023-02-24T09:15:02.129Z,7.28
2023-02-24T09:17:45.239Z,7.72
2023-02-24T09:20:42.805Z,18.10
2023-02-24T09:23:19.927Z,10.85
2023-02-24T09:25:50.292Z,8.20
2023-02-24T09:28:19.840Z,9.18
2023-02-24T09:30:53.230Z,7.65
2023-02-24T09:33:28.934Z,8.30
2023-02-24T09:36:10.693Z,9.73
2023-02-24T09:39:01.343Z,10.18
2023-02-24T09:41:54.408Z,10.43
2023-02-24T09:44:26.923Z,9.60
2023-02-24T09:47:00.312Z,8.60
2023-02-24T09:49:39.911Z,7.43
2023-02-24T09:52:17.449Z,8.80
2023-02-24T09:55:15.636Z,8.63
2023-02-24T09:58:08.292Z,11.10
2023-02-24T10:00:43.950Z,10.32
2023-02-24T10:03:29.972Z,12.85
2023-02-24T10:06:12.035Z,13.07
2023-02-24T10:08:42.693Z,10.48
2023-02-24T10:11:13.562Z,11.15
2023-02-24T10:13:49.723Z,13.85
2023-02-24T10:16:23.850Z,8.73
2023-02-24T10:19:11.639Z,13.35
2023-02-24T10:22:03.313Z,14.90
2023-02-24T10:24:47.263Z,10.05
2023-02-24T10:27:43.827Z,9.20
2023-02-24T10:30:20.766Z,13.10
2023-02-24T10:33:00.066Z,9.18
2023-02-24T10:35:33.467Z,12.07
2023-02-24T10:38:05.265Z,13.50
2023-02-24T10:40:56.051Z,12.73
2023-02-24T10:43:30.261Z,12.75
2023-02-24T10:46:06.032Z,14.90
2023-02-24T10:48:41.840Z,10.20
2023-02-24T10:51:20.554Z,11.13
2023-02-24T10:54:10.130Z,8.90
2023-02-24T10:56:44.880Z,17.10
2023-02-24T10:59:25.228Z,12.73
2023-02-24T11:02:29.239Z,9.23
2023-02-24T11:05:04.636Z,10.90
2023-02-24T11:07:52.411Z,8.98
2023-02-24T11:10:42.597Z,13.70
2023-02-24T11:13:34.645Z,7.20
2023-02-24T11:16:19.982Z,8.27
2023-02-24T11:18:50.005Z,13.30
2023-02-24T11:21:17.436Z,6.88
2023-02-24T11:23:51.531Z,9.40
2023-02-24T11:26:23.151Z,5.88
2023-02-24T11:28:57.170Z,9.48
2023-02-24T11:31:54.092Z,7.75
2023-02-24T11:34:49.459Z,6.72
2023-02-24T11:37:43.504Z,8.43
2023-02-24T11:40:23.042Z,7.28
2023-02-24T11:43:01.376Z,8.35
2023-02-24T11:45:40.471Z,6.47
2023-02-24T11:48:15.927Z,6.93
2023-02-24T11:51:12.378Z,6.50
2023-02-24T11:53:52.942Z,5.90
2023-02-24T11:56:36.290Z,7.80
2023-02-24T11:59:29.391Z,7.22
2023-02-24T12:02:04.289Z,12.60
2023-02-24T12:04:44.323Z,14.85
2023-02-24T12:07:21.930Z,9.07
2023-02-24T12:10:07.004Z,8.80
2023-02-24T12:12:57.459Z,9.60
2023-02-24T12:15:29.699Z,8.55
2023-02-24T12:18:24.294Z,6.43
2023-02-24T12:20:56.047Z,9.10
2023-02-24T12:23:30.444Z,10.75
2023-02-24T12:26:09.063Z,9.40
2023-02-24T12:28:56.912Z,6.60
2023-02-24T12:31:54.171Z,7.63
2023-02-24T12:34:36.716Z,9.60
2023-02-24T12:37:16.602Z,9.45
2023-02-24T12:40:05.092Z,6.28
2023-02-24T12:42:44.122Z,11.73
2023-02-24T12:45:32.448Z,9.10
2023-02-24T12:48:24.594Z,8.63
2023-02-24T12:51:09.562Z,6.20
2023-02-24T12:54:00.999Z,6.65
2023-02-24T12:56:37.995Z,8.80
2023-02-24T12:59:08.425Z,8.35
2023-02-24T13:01:48.973Z,11.38
2023-02-24T13:04:42.680Z,10.23
2023-02-24T13:07:28.972Z,7.88
2023-02-24T13:10:07.713Z,7.80
2023-02-24T13:12:43.373Z,11.60
2023-02-24T13:15:22.147Z,10.63
2023-02-24T13:17:51.654Z,9.13
2023-02-24T13:20:36.755Z,15.77
2023-02-24T13:23:18.462Z,10.20
2023-02-24T13:25:51.957Z,7.68
2023-02-24T13:28:25.528Z,10.75
2023-02-24T13:31:18.175Z,8.10
2023-02-24T13:33:44.964Z,7.03
2023-02-24T13:36:21.428Z,8.40
2023-02-24T13:38:50.942Z,10.38
2023-02-24T13:41:33.560Z,12.02
2023-02-24T13:44:22.413Z,8.13
2023-02-24T13:46:58.428Z,7.70
2023-02-24T13:49:54.984Z,7.60
2023-02-24T13:52:34.491Z,10.77
2023-02-24T13:55:18.697Z,7.85
2023-02-24T13:58:00.061Z,9.35
2023-02-24T14:00:38.602Z,8.95
2023-02-24T14:03:11.608Z,7.10
2023-02-24T14:05:41.035Z,8.30
2023-02-24T14:08:07.659Z,10.27
2023-02-24T14:10:36.833Z,8.60
2023-02-24T14:13:07.907Z,8.18
2023-02-24T14:15:34.754Z,8.35
2023-02-24T14:18:04.052Z,7.22
2023-02-24T14:20:35.301Z,13.77
2023-02-24T14:23:01.944Z,10.95
2023-02-24T14:25:38.028Z,8.07
2023-02-24T14:28:04.646Z,8.23
2023-02-24T14:30:37.796Z,8.88
2023-02-24T14:33:06.916Z,8.48
2023-02-24T14:35:46.518Z,8.52
2023-02-24T14:38:36.012Z,7.85
2023-02-24T14:41:05.954Z,9.98
2023-02-24T14:43:34.980Z,7.90
2023-02-24T14:46:08.316Z,7.93
2023-02-24T14:48:35.315Z,12.23
2023-02-24T14:51:09.746Z,8.70
2023-02-24T14:53:50.773Z,7.10
2023-02-24T14:56:20.978Z,9.68
2023-02-24T14:58:53.238Z,13.65
2023-02-24T15:01:39.895Z,7.40
2023-02-24T15:06:42.907Z,9.18
2023-02-24T15:09:34.584Z,10.90
2023-02-24T15:12:12.751Z,11.98
2023-02-24T15:14:43.402Z,9.10
2023-02-24T15:17:16.866Z,16.83
2023-02-24T15:19:47.510Z,11.73
2023-02-24T15:22:28.535Z,9.65
2023-02-24T15:25:15.896Z,8.05
2023-02-24T15:27:58.391Z,11.95
2023-02-24T15:30:34.523Z,8.90
2023-02-24T15:33:23.557Z,5.80
2023-02-24T15:35:55.177Z,9.13
2023-02-24T15:38:34.196Z,8.75
2023-02-24T15:41:03.804Z,5.18
2023-02-24T15:43:53.263Z,9.93
2023-02-24T15:46:34.220Z,6.97
2023-02-24T15:49:03.381Z,8.35
2023-02-24T15:51:38.598Z,6.63
2023-02-24T15:54:10.644Z,6.50
2023-02-24T15:56:37.314Z,9.18
2023-02-24T15:59:03.776Z,8.45
2023-02-24T16:01:31.055Z,6.78
2023-02-24T16:03:57.521Z,6.25
2023-02-24T16:06:25.849Z,9.55
2023-02-24T16:08:54.561Z,9.43
2023-02-24T16:11:24.972Z,10.93
2023-02-24T16:13:56.530Z,5.18
2023-02-24T16:16:23.986Z,5.97
2023-02-24T16:18:51.257Z,7.85
2023-02-24T16:21:19.016Z,10.80
2023-02-24T16:23:45.576Z,11.57
2023-02-24T16:26:17.829Z,10.35
2023-02-24T16:28:50.822Z,6.95
2023-02-24T16:31:17.573Z,10.30
2023-02-24T16:33:54.082Z,9.35
2023-02-24T16:36:24.175Z,9.07
2023-02-24T16:38:51.613Z,4.90
2023-02-24T16:41:18.123Z,8.68
2023-02-24T16:43:44.551Z,9.00
2023-02-24T16:46:16.880Z,15.27
2023-02-24T16:48:47.593Z,40.50
2023-02-24T16:51:14.741Z,34.28
2023-02-24T16:53:41.828Z,31.40
2023-02-24T16:56:08.594Z,16.00
2023-02-24T16:58:35.266Z,13.02
2023-02-24T17:01:03.905Z,8.27
2023-02-24T17:03:53.962Z,10.77
2023-02-24T17:06:22.397Z,9.73
2023-02-24T17:08:50.093Z,12.32
2023-02-24T17:11:20.028Z,10.82
2023-02-24T17:13:46.527Z,8.00
2023-02-24T17:16:13.296Z,12.45
2023-02-24T17:18:39.778Z,8.93
2023-02-24T17:21:06.222Z,9.27
2023-02-24T17:23:32.712Z,10.65
2023-02-24T17:26:01.884Z,6.00
2023-02-24T17:28:28.390Z,6.85
2023-02-24T17:30:54.894Z,9.93
2023-02-24T17:33:21.449Z,14.43
2023-02-24T17:35:48.260Z,7.68
2023-02-24T17:38:16.566Z,13.18
2023-02-24T17:40:44.144Z,12.10
2023-02-24T17:43:11.264Z,10.93
2023-02-24T17:45:42.862Z,12.93
2023-02-24T17:48:09.358Z,13.18
2023-02-24T17:50:35.827Z,10.38
2023-02-24T17:53:02.274Z,10.30
2023-02-24T17:55:28.697Z,8.02
2023-02-24T17:57:57.085Z,14.05
2023-02-24T18:00:23.812Z,13.77
2023-02-24T18:02:50.320Z,9.90
2023-02-24T18:05:16.882Z,9.38
2023-02-24T18:10:10.593Z,12.23
2023-02-24T18:12:37.676Z,8.95
2023-02-24T18:15:09.029Z,9.60
2023-02-24T18:17:37.423Z,7.90
2023-02-24T18:20:08.409Z,14.32
2023-02-24T18:22:35.529Z,7.97
2023-02-24T18:25:02.047Z,16.30
2023-02-24T18:27:28.561Z,13.38
2023-02-24T18:29:55.060Z,9.40
2023-02-24T18:32:21.901Z,9.38
2023-02-24T18:34:48.562Z,10.02
2023-02-24T18:37:15.152Z,9.05
2023-02-24T18:39:41.573Z,8.38
2023-02-24T18:42:08.010Z,7.78
2023-02-24T18:44:34.433Z,7.28
2023-02-24T18:47:00.950Z,8.65
2023-02-24T18:49:27.410Z,7.13
2023-02-24T18:51:53.845Z,7.95
2023-02-24T18:54:20.281Z,7.03
2023-02-24T18:56:46.729Z,5.20
2023-02-24T18:59:13.141Z,5.50
2023-02-24T19:01:39.913Z,5.32
2023-02-24T19:04:08.077Z,5.63
2023-02-24T19:06:35.404Z,6.78
2023-02-24T19:09:10.909Z,7.35
2023-02-24T19:11:38.655Z,4.23
2023-02-24T19:14:05.629Z,7.82
2023-02-24T19:16:33.014Z,6.18
2023-02-24T19:19:00.209Z,6.30
2023-02-24T19:21:27.872Z,6.18
2023-02-24T19:23:54.576Z,5.95
2023-02-24T19:26:24.321Z,8.15
2023-02-24T19:28:51.221Z,8.15
2023-02-24T19:31:23.514Z,9.25
2023-02-24T19:33:54.459Z,8.50
2023-02-24T19:36:22.236Z,8.40
2023-02-24T19:38:49.244Z,7.78
2023-02-24T19:41:15.703Z,6.60
2023-02-24T19:43:42.470Z,6.82
2023-02-24T19:46:11.056Z,8.18
2023-02-24T19:48:38.131Z,7.88
2023-02-24T19:51:22.451Z,7.72
2023-02-24T19:53:52.521Z,6.53
2023-02-24T19:56:27.439Z,7.00
2023-02-24T19:58:55.028Z,6.40
2023-02-24T20:01:22.747Z,5.75
2023-02-24T20:03:50.150Z,4.97
2023-02-24T20:06:26.581Z,3.97
2023-02-24T20:08:53.769Z,8.30
2023-02-24T20:11:21.113Z,7.63
2023-02-24T20:13:48.088Z,4.13
2023-02-24T20:16:16.707Z,9.02
2023-02-24T20:18:44.594Z,6.32
2023-02-24T20:21:12.230Z,6.30
2023-02-24T20:23:40.361Z,4.30
2023-02-24T20:26:09.518Z,4.68
2023-02-24T20:28:37.601Z,4.55
2023-02-24T20:31:10.460Z,3.45
2023-02-24T20:33:40.726Z,2.33
2023-02-24T20:36:09.308Z,2.13
2023-02-24T20:38:36.223Z,1.55
2023-02-24T20:41:03.485Z,1.63
2023-02-24T20:43:30.023Z,1.60
2023-02-24T20:45:56.797Z,1.13
2023-02-24T20:48:23.446Z,1.00
2023-02-24T20:50:49.941Z,1.00
2023-02-24T20:53:16.822Z,1.23
2023-02-24T20:55:43.381Z,1.92
2023-02-24T20:58:10.207Z,2.17
2023-02-24T21:00:38.531Z,1.55
2023-02-24T21:03:07.622Z,2.88
2023-02-24T21:05:34.182Z,4.72
2023-02-24T21:08:00.676Z,5.50
2023-02-24T21:10:27.126Z,5.00
2023-02-24T21:12:53.537Z,4.57
2023-02-24T21:15:20.000Z,3.25
2023-02-24T21:17:46.423Z,5.47
2023-02-24T21:20:13.362Z,3.92
2023-02-24T21:22:40.752Z,4.40
2023-02-24T21:25:10.642Z,5.18
2023-02-24T21:27:37.973Z,4.25
2023-02-24T21:30:06.361Z,5.20
2023-02-24T21:32:33.035Z,4.75
2023-02-24T21:34:59.538Z,6.78
2023-02-24T21:37:26.007Z,5.15
2023-02-24T21:39:52.416Z,3.15
2023-02-24T21:42:18.841Z,5.40
2023-02-24T21:44:45.332Z,4.47
2023-02-24T21:47:11.767Z,5.65
2023-02-24T21:49:38.173Z,4.05
2023-02-24T21:52:06.413Z,5.95
2023-02-24T21:54:34.218Z,6.60
2023-02-24T21:57:01.014Z,5.63
2023-02-24T21:59:27.460Z,6.32
2023-02-24T22:01:54.291Z,7.47
2023-02-24T22:04:21.618Z,5.55
2023-02-24T22:06:48.025Z,4.93
2023-02-24T22:09:21.342Z,4.20
2023-02-24T22:11:49.217Z,5.35
2023-02-24T22:14:16.378Z,7.35
2023-02-24T22:16:43.391Z,5.63
2023-02-24T22:19:10.445Z,7.55
2023-02-24T22:21:39.136Z,5.55
2023-02-24T22:24:05.870Z,6.22
2023-02-24T22:26:32.489Z,5.95
2023-02-24T22:28:59.732Z,4.60
2023-02-24T22:31:28.535Z,5.38
2023-02-24T22:33:55.360Z,6.50
2023-02-24T22:36:25.463Z,5.57
2023-02-24T22:38:52.375Z,7.13
2023-02-24T22:41:21.598Z,5.70
2023-02-24T22:43:48.580Z,8.57
2023-02-24T22:46:18.016Z,6.28
2023-02-24T22:48:44.822Z,7.28
2023-02-24T22:51:13.308Z,6.78
2023-02-24T22:53:42.958Z,5.70
2023-02-24T22:56:15.139Z,7.30
2023-02-24T22:58:42.028Z,6.97
2023-02-24T23:01:10.640Z,9.30
2023-02-24T23:03:37.658Z,7.90
2023-02-24T23:06:07.237Z,8.73
2023-02-24T23:08:36.538Z,8.80
2023-02-24T23:11:07.076Z,8.82
2023-02-24T23:13:38.132Z,6.88
2023-02-24T23:16:06.577Z,9.52
2023-02-24T23:18:34.404Z,7.97
2023-02-24T23:21:03.439Z,10.18
2023-02-24T23:23:31.514Z,10.15
2023-02-24T23:25:58.374Z,9.15
2023-02-24T23:28:25.934Z,8.50
2023-02-24T23:30:53.352Z,10.98
2023-02-24T23:33:20.257Z,6.78
2023-02-24T23:35:46.669Z,8.35
2023-02-24T23:38:13.560Z,7.53
2023-02-24T23:40:50.037Z,9.93
2023-02-24T23:43:17.598Z,9.10
2023-02-24T23:45:44.371Z,10.07
2023-02-24T23:48:12.733Z,9.40
2023-02-24T23:50:41.130Z,7.95
2023-02-24T23:53:07.685Z,8.07
2023-02-24T23:55:35.508Z,8.27
2023-02-24T23:58:03.650Z,7.03
